sensor_id;sensor_type;location;lat;lon;timestamp;temperature;humidity
22747;DHT22;11540;52.130;5.648;2022-09-21T00:00:50;9.40;99.90
22747;DHT22;11540;52.130;5.648;2022-09-21T00:03:15;9.30;99.90
22747;DHT22;11540;52.130;5.648;2022-09-21T00:05:41;9.30;99.90
22747;DHT22;11540;52.130;5.648;2022-09-21T00:08:07;9.30;99.90
22747;DHT22;11540;52.130;5.648;2022-09-21T00:10:33;9.40;99.90
22747;DHT22;11540;52.130;5.648;2022-09-21T00:12:58;9.40;99.90
22747;DHT22;11540;52.130;5.648;2022-09-21T00:15:24;9.40;99.90
22747;DHT22;11540;52.130;5.648;2022-09-21T00:17:53;9.40;99.90
22747;DHT22;11540;52.130;5.648;2022-09-21T00:20:19;9.40;99.90
22747;DHT22;11540;52.130;5.648;2022-09-21T00:22:46;9.40;99.90
22747;DHT22;11540;52.130;5.648;2022-09-21T00:25:12;9.40;99.90
22747;DHT22;11540;52.130;5.648;2022-09-21T00:27:37;9.30;99.90
22747;DHT22;11540;52.130;5.648;2022-09-21T00:30:03;9.30;99.90
22747;DHT22;11540;52.130;5.648;2022-09-21T00:32:30;9.20;99.90
22747;DHT22;11540;52.130;5.648;2022-09-21T00:34:56;9.10;99.90
22747;DHT22;11540;52.130;5.648;2022-09-21T00:37:22;9.10;99.90
22747;DHT22;11540;52.130;5.648;2022-09-21T00:39:48;9.00;99.90
22747;DHT22;11540;52.130;5.648;2022-09-21T00:42:21;8.90;99.90
22747;DHT22;11540;52.130;5.648;2022-09-21T00:44:46;8.90;99.90
22747;DHT22;11540;52.130;5.648;2022-09-21T00:47:13;8.80;99.90
22747;DHT22;11540;52.130;5.648;2022-09-21T00:49:43;8.80;99.90
22747;DHT22;11540;52.130;5.648;2022-09-21T00:52:11;8.80;99.90
22747;DHT22;11540;52.130;5.648;2022-09-21T00:55:12;8.80;99.90
22747;DHT22;11540;52.130;5.648;2022-09-21T00:57:30;8.90;99.90
22747;DHT22;11540;52.130;5.648;2022-09-21T00:59:57;8.90;99.90
22747;DHT22;11540;52.130;5.648;2022-09-21T01:02:24;8.90;99.90
22747;DHT22;11540;52.130;5.648;2022-09-21T01:04:50;9.00;99.90
22747;DHT22;11540;52.130;5.648;2022-09-21T01:07:19;9.10;99.90
22747;DHT22;11540;52.130;5.648;2022-09-21T01:09:47;9.00;99.90
22747;DHT22;11540;52.130;5.648;2022-09-21T01:12:59;8.90;99.90
22747;DHT22;11540;52.130;5.648;2022-09-21T01:15:13;8.90;99.90
22747;DHT22;11540;52.130;5.648;2022-09-21T01:30:45;8.70;99.90
22747;DHT22;11540;52.130;5.648;2022-09-21T01:33:15;8.60;99.90
22747;DHT22;11540;52.130;5.648;2022-09-21T01:35:46;8.60;99.90
22747;DHT22;11540;52.130;5.648;2022-09-21T01:38:18;8.50;99.90
22747;DHT22;11540;52.130;5.648;2022-09-21T01:40:52;8.40;99.90
22747;DHT22;11540;52.130;5.648;2022-09-21T01:43:32;8.40;99.90
22747;DHT22;11540;52.130;5.648;2022-09-21T01:45:59;8.40;99.90
22747;DHT22;11540;52.130;5.648;2022-09-21T01:48:29;8.30;99.90
22747;DHT22;11540;52.130;5.648;2022-09-21T01:50:56;8.20;99.90
22747;DHT22;11540;52.130;5.648;2022-09-21T01:53:27;8.10;99.90
22747;DHT22;11540;52.130;5.648;2022-09-21T01:55:57;8.20;99.90
22747;DHT22;11540;52.130;5.648;2022-09-21T01:58:34;8.20;99.90
22747;DHT22;11540;52.130;5.648;2022-09-21T02:01:00;8.30;99.90
22747;DHT22;11540;52.130;5.648;2022-09-21T02:05:52;8.10;99.90
22747;DHT22;11540;52.130;5.648;2022-09-21T02:08:18;8.00;99.90
22747;DHT22;11540;52.130;5.648;2022-09-21T02:10:45;8.00;99.90
22747;DHT22;11540;52.130;5.648;2022-09-21T02:13:12;7.90;99.90
22747;DHT22;11540;52.130;5.648;2022-09-21T02:18:19;7.80;99.90
22747;DHT22;11540;52.130;5.648;2022-09-21T02:20:51;7.70;99.90
22747;DHT22;11540;52.130;5.648;2022-09-21T02:23:32;7.70;99.90
22747;DHT22;11540;52.130;5.648;2022-09-21T02:26:05;7.60;99.90
22747;DHT22;11540;52.130;5.648;2022-09-21T02:31:07;7.80;99.90
22747;DHT22;11540;52.130;5.648;2022-09-21T02:33:42;7.80;99.90
22747;DHT22;11540;52.130;5.648;2022-09-21T02:36:19;7.90;99.90
22747;DHT22;11540;52.130;5.648;2022-09-21T02:38:50;7.90;99.90
22747;DHT22;11540;52.130;5.648;2022-09-21T02:41:31;7.90;99.90
22747;DHT22;11540;52.130;5.648;2022-09-21T02:44:02;7.90;99.90
22747;DHT22;11540;52.130;5.648;2022-09-21T02:46:34;7.90;99.90
22747;DHT22;11540;52.130;5.648;2022-09-21T02:49:21;7.80;99.90
22747;DHT22;11540;52.130;5.648;2022-09-21T02:51:48;7.70;99.90
22747;DHT22;11540;52.130;5.648;2022-09-21T02:54:18;7.70;99.90
22747;DHT22;11540;52.130;5.648;2022-09-21T02:56:45;7.70;99.90
22747;DHT22;11540;52.130;5.648;2022-09-21T02:59:12;7.70;99.90
22747;DHT22;11540;52.130;5.648;2022-09-21T03:01:38;7.60;99.90
22747;DHT22;11540;52.130;5.648;2022-09-21T03:04:04;7.60;99.90
22747;DHT22;11540;52.130;5.648;2022-09-21T03:06:29;7.50;99.90
22747;DHT22;11540;52.130;5.648;2022-09-21T03:08:56;7.50;99.90
22747;DHT22;11540;52.130;5.648;2022-09-21T03:11:22;7.50;99.90
22747;DHT22;11540;52.130;5.648;2022-09-21T03:13:48;7.60;99.90
22747;DHT22;11540;52.130;5.648;2022-09-21T03:16:13;7.60;99.90
22747;DHT22;11540;52.130;5.648;2022-09-21T03:18:39;7.70;99.90
22747;DHT22;11540;52.130;5.648;2022-09-21T03:21:07;7.60;99.90
22747;DHT22;11540;52.130;5.648;2022-09-21T03:23:32;7.50;99.90
22747;DHT22;11540;52.130;5.648;2022-09-21T03:25:58;7.40;99.90
22747;DHT22;11540;52.130;5.648;2022-09-21T03:28:23;7.30;99.90
22747;DHT22;11540;52.130;5.648;2022-09-21T03:30:49;7.30;99.90
22747;DHT22;11540;52.130;5.648;2022-09-21T03:33:15;7.20;99.90
22747;DHT22;11540;52.130;5.648;2022-09-21T03:35:40;7.20;99.90
22747;DHT22;11540;52.130;5.648;2022-09-21T03:38:06;7.20;99.90
22747;DHT22;11540;52.130;5.648;2022-09-21T03:40:32;7.20;99.90
22747;DHT22;11540;52.130;5.648;2022-09-21T03:42:57;7.10;99.90
22747;DHT22;11540;52.130;5.648;2022-09-21T03:45:23;7.20;99.90
22747;DHT22;11540;52.130;5.648;2022-09-21T03:47:58;7.20;99.90
22747;DHT22;11540;52.130;5.648;2022-09-21T03:50:24;7.00;99.90
22747;DHT22;11540;52.130;5.648;2022-09-21T03:52:50;6.90;99.90
22747;DHT22;11540;52.130;5.648;2022-09-21T03:55:15;6.90;99.90
22747;DHT22;11540;52.130;5.648;2022-09-21T03:57:41;7.00;99.90
22747;DHT22;11540;52.130;5.648;2022-09-21T04:00:07;7.10;99.90
22747;DHT22;11540;52.130;5.648;2022-09-21T04:02:33;7.10;99.90
22747;DHT22;11540;52.130;5.648;2022-09-21T04:04:59;7.10;99.90
22747;DHT22;11540;52.130;5.648;2022-09-21T04:07:24;7.10;99.90
22747;DHT22;11540;52.130;5.648;2022-09-21T04:09:50;7.00;99.90
22747;DHT22;11540;52.130;5.648;2022-09-21T04:12:16;6.90;99.90
22747;DHT22;11540;52.130;5.648;2022-09-21T04:14:41;6.80;99.90
22747;DHT22;11540;52.130;5.648;2022-09-21T04:17:07;6.80;99.90
22747;DHT22;11540;52.130;5.648;2022-09-21T04:19:32;6.90;99.90
22747;DHT22;11540;52.130;5.648;2022-09-21T04:21:57;6.90;99.90
22747;DHT22;11540;52.130;5.648;2022-09-21T04:24:23;7.00;99.90
22747;DHT22;11540;52.130;5.648;2022-09-21T04:26:48;6.90;99.90
22747;DHT22;11540;52.130;5.648;2022-09-21T04:29:14;6.90;99.90
22747;DHT22;11540;52.130;5.648;2022-09-21T04:31:40;6.90;99.90
22747;DHT22;11540;52.130;5.648;2022-09-21T04:34:05;6.70;99.90
22747;DHT22;11540;52.130;5.648;2022-09-21T04:36:31;6.70;99.90
22747;DHT22;11540;52.130;5.648;2022-09-21T04:38:58;6.60;99.90
22747;DHT22;11540;52.130;5.648;2022-09-21T04:41:24;6.50;99.90
22747;DHT22;11540;52.130;5.648;2022-09-21T04:43:50;6.40;99.90
22747;DHT22;11540;52.130;5.648;2022-09-21T04:46:16;6.40;99.90
22747;DHT22;11540;52.130;5.648;2022-09-21T04:48:42;6.40;99.90
22747;DHT22;11540;52.130;5.648;2022-09-21T04:51:08;6.50;99.90
22747;DHT22;11540;52.130;5.648;2022-09-21T04:53:34;6.60;99.90
22747;DHT22;11540;52.130;5.648;2022-09-21T04:56:01;6.60;99.90
22747;DHT22;11540;52.130;5.648;2022-09-21T04:58:27;6.80;99.90
22747;DHT22;11540;52.130;5.648;2022-09-21T05:00:52;6.80;99.90
22747;DHT22;11540;52.130;5.648;2022-09-21T05:03:19;6.80;99.90
22747;DHT22;11540;52.130;5.648;2022-09-21T05:05:48;6.80;99.90
22747;DHT22;11540;52.130;5.648;2022-09-21T05:08:14;6.80;99.90
22747;DHT22;11540;52.130;5.648;2022-09-21T05:10:40;6.70;99.90
22747;DHT22;11540;52.130;5.648;2022-09-21T05:13:06;6.70;99.90
22747;DHT22;11540;52.130;5.648;2022-09-21T05:15:31;6.70;99.90
22747;DHT22;11540;52.130;5.648;2022-09-21T05:17:57;6.70;99.90
22747;DHT22;11540;52.130;5.648;2022-09-21T05:20:22;6.70;99.90
22747;DHT22;11540;52.130;5.648;2022-09-21T05:22:48;6.80;99.90
22747;DHT22;11540;52.130;5.648;2022-09-21T05:25:13;6.80;99.90
22747;DHT22;11540;52.130;5.648;2022-09-21T05:27:39;6.90;99.90
22747;DHT22;11540;52.130;5.648;2022-09-21T05:30:04;6.90;99.90
22747;DHT22;11540;52.130;5.648;2022-09-21T05:32:36;6.70;99.90
22747;DHT22;11540;52.130;5.648;2022-09-21T05:37:54;6.70;99.90
22747;DHT22;11540;52.130;5.648;2022-09-21T05:40:21;6.60;99.90
22747;DHT22;11540;52.130;5.648;2022-09-21T05:42:47;6.60;99.90
22747;DHT22;11540;52.130;5.648;2022-09-21T05:45:13;6.70;99.90
22747;DHT22;11540;52.130;5.648;2022-09-21T05:52:42;6.70;99.90
22747;DHT22;11540;52.130;5.648;2022-09-21T05:55:15;6.70;99.90
22747;DHT22;11540;52.130;5.648;2022-09-21T06:00:12;6.80;99.90
22747;DHT22;11540;52.130;5.648;2022-09-21T06:05:22;7.00;99.90
22747;DHT22;11540;52.130;5.648;2022-09-21T06:07:48;7.10;99.90
22747;DHT22;11540;52.130;5.648;2022-09-21T06:10:13;7.10;99.90
22747;DHT22;11540;52.130;5.648;2022-09-21T06:12:40;7.10;99.90
22747;DHT22;11540;52.130;5.648;2022-09-21T06:15:06;7.10;99.90
22747;DHT22;11540;52.130;5.648;2022-09-21T06:17:34;7.20;99.90
22747;DHT22;11540;52.130;5.648;2022-09-21T06:20:00;7.20;99.90
22747;DHT22;11540;52.130;5.648;2022-09-21T06:22:27;7.20;99.90
22747;DHT22;11540;52.130;5.648;2022-09-21T06:24:52;7.10;99.90
22747;DHT22;11540;52.130;5.648;2022-09-21T06:27:18;7.00;99.90
22747;DHT22;11540;52.130;5.648;2022-09-21T06:29:43;7.00;99.90
22747;DHT22;11540;52.130;5.648;2022-09-21T06:32:08;7.00;99.90
22747;DHT22;11540;52.130;5.648;2022-09-21T06:34:34;7.00;99.90
22747;DHT22;11540;52.130;5.648;2022-09-21T06:36:59;7.10;99.90
22747;DHT22;11540;52.130;5.648;2022-09-21T06:39:25;7.30;99.90
22747;DHT22;11540;52.130;5.648;2022-09-21T06:41:50;7.30;99.90
22747;DHT22;11540;52.130;5.648;2022-09-21T06:44:16;7.30;99.90
22747;DHT22;11540;52.130;5.648;2022-09-21T06:46:41;7.40;99.90
22747;DHT22;11540;52.130;5.648;2022-09-21T06:49:07;7.40;99.90
22747;DHT22;11540;52.130;5.648;2022-09-21T06:51:32;7.50;99.90
22747;DHT22;11540;52.130;5.648;2022-09-21T06:53:58;7.40;99.90
22747;DHT22;11540;52.130;5.648;2022-09-21T06:56:24;7.50;99.90
22747;DHT22;11540;52.130;5.648;2022-09-21T06:58:50;7.50;99.90
22747;DHT22;11540;52.130;5.648;2022-09-21T07:01:16;7.60;99.90
22747;DHT22;11540;52.130;5.648;2022-09-21T07:03:42;7.60;99.90
22747;DHT22;11540;52.130;5.648;2022-09-21T07:06:08;7.60;99.90
22747;DHT22;11540;52.130;5.648;2022-09-21T07:08:36;7.70;99.90
22747;DHT22;11540;52.130;5.648;2022-09-21T07:11:01;7.70;99.90
22747;DHT22;11540;52.130;5.648;2022-09-21T07:13:27;7.80;99.90
22747;DHT22;11540;52.130;5.648;2022-09-21T07:15:53;7.90;99.90
22747;DHT22;11540;52.130;5.648;2022-09-21T07:18:18;8.00;99.90
22747;DHT22;11540;52.130;5.648;2022-09-21T07:20:44;8.10;99.90
22747;DHT22;11540;52.130;5.648;2022-09-21T07:23:10;8.20;99.90
22747;DHT22;11540;52.130;5.648;2022-09-21T07:25:36;8.30;99.90
22747;DHT22;11540;52.130;5.648;2022-09-21T07:28:01;8.40;99.90
22747;DHT22;11540;52.130;5.648;2022-09-21T07:30:27;8.50;99.90
22747;DHT22;11540;52.130;5.648;2022-09-21T07:32:52;8.60;99.90
22747;DHT22;11540;52.130;5.648;2022-09-21T07:35:18;8.70;99.90
22747;DHT22;11540;52.130;5.648;2022-09-21T07:37:44;8.90;99.90
22747;DHT22;11540;52.130;5.648;2022-09-21T07:58:10;10.20;99.90
22747;DHT22;11540;52.130;5.648;2022-09-21T08:00:54;10.40;99.90
22747;DHT22;11540;52.130;5.648;2022-09-21T08:03:20;10.60;99.90
22747;DHT22;11540;52.130;5.648;2022-09-21T08:05:45;10.90;99.90
22747;DHT22;11540;52.130;5.648;2022-09-21T08:08:10;11.00;99.90
22747;DHT22;11540;52.130;5.648;2022-09-21T08:10:36;11.20;99.90
22747;DHT22;11540;52.130;5.648;2022-09-21T08:13:04;11.40;99.90
22747;DHT22;11540;52.130;5.648;2022-09-21T08:15:29;11.50;99.90
22747;DHT22;11540;52.130;5.648;2022-09-21T08:17:55;11.60;99.90
22747;DHT22;11540;52.130;5.648;2022-09-21T08:20:22;11.70;99.90
22747;DHT22;11540;52.130;5.648;2022-09-21T08:22:48;11.80;99.90
22747;DHT22;11540;52.130;5.648;2022-09-21T08:25:13;11.80;99.90
22747;DHT22;11540;52.130;5.648;2022-09-21T08:27:39;11.90;99.90
22747;DHT22;11540;52.130;5.648;2022-09-21T08:30:06;11.90;99.90
22747;DHT22;11540;52.130;5.648;2022-09-21T08:32:32;12.00;99.90
22747;DHT22;11540;52.130;5.648;2022-09-21T08:34:57;12.10;99.90
22747;DHT22;11540;52.130;5.648;2022-09-21T08:37:23;12.20;99.90
22747;DHT22;11540;52.130;5.648;2022-09-21T08:39:48;12.20;99.90
22747;DHT22;11540;52.130;5.648;2022-09-21T08:42:23;12.30;99.90
22747;DHT22;11540;52.130;5.648;2022-09-21T08:44:52;12.40;99.90
22747;DHT22;11540;52.130;5.648;2022-09-21T08:50:03;12.50;99.90
22747;DHT22;11540;52.130;5.648;2022-09-21T08:52:30;12.50;99.90
22747;DHT22;11540;52.130;5.648;2022-09-21T08:54:57;12.50;99.90
22747;DHT22;11540;52.130;5.648;2022-09-21T08:57:25;12.50;99.90
22747;DHT22;11540;52.130;5.648;2022-09-21T08:59:53;12.60;99.90
22747;DHT22;11540;52.130;5.648;2022-09-21T09:10:26;12.70;99.90
22747;DHT22;11540;52.130;5.648;2022-09-21T09:18:17;12.90;99.90
22747;DHT22;11540;52.130;5.648;2022-09-21T09:20:44;12.90;99.90
22747;DHT22;11540;52.130;5.648;2022-09-21T09:23:12;13.00;99.90
22747;DHT22;11540;52.130;5.648;2022-09-21T09:25:41;13.10;99.90
22747;DHT22;11540;52.130;5.648;2022-09-21T09:28:15;13.20;99.90
22747;DHT22;11540;52.130;5.648;2022-09-21T09:30:42;13.40;99.90
22747;DHT22;11540;52.130;5.648;2022-09-21T09:33:21;13.50;99.90
22747;DHT22;11540;52.130;5.648;2022-09-21T09:38:18;13.90;99.90
22747;DHT22;11540;52.130;5.648;2022-09-21T09:43:21;14.20;99.90
22747;DHT22;11540;52.130;5.648;2022-09-21T09:51:29;14.90;99.90
22747;DHT22;11540;52.130;5.648;2022-09-21T09:53:58;15.20;99.90
22747;DHT22;11540;52.130;5.648;2022-09-21T09:56:25;15.50;99.90
22747;DHT22;11540;52.130;5.648;2022-09-21T09:58:57;15.70;99.90
22747;DHT22;11540;52.130;5.648;2022-09-21T10:01:41;16.00;99.90
22747;DHT22;11540;52.130;5.648;2022-09-21T10:04:12;16.40;99.90
22747;DHT22;11540;52.130;5.648;2022-09-21T10:06:37;16.70;99.90
22747;DHT22;11540;52.130;5.648;2022-09-21T10:09:21;17.10;99.90
22747;DHT22;11540;52.130;5.648;2022-09-21T10:11:47;17.40;99.90
22747;DHT22;11540;52.130;5.648;2022-09-21T10:14:16;17.70;99.90
22747;DHT22;11540;52.130;5.648;2022-09-21T10:16:42;17.90;99.90
22747;DHT22;11540;52.130;5.648;2022-09-21T10:19:15;18.10;99.90
22747;DHT22;11540;52.130;5.648;2022-09-21T10:21:41;18.40;99.90
